KJYR

Details ICAO KJYR
Name YORK MUNI
Region United States
Timezone America/Chicago (UTC-5.0)
Plans Departing 2
Arriving 0
Stats Elevation 1,670 ft / 509 m (AMSL)
Location 40.896362° -97.624290°
Runways 2
Magnetic Variation 3.722° E
Sunrise 2018-05-20 11:09:55 UTC / 2018-05-20 06:09:55 Local
Sunset 2018-05-21 01:47:00 UTC / 2018-05-20 20:47:00 Local
Advertisement - Login to hide

Runways

ID Width Length Bearing (true) Bearing (mag) Surface Threshold Offset Overrun Length
05 151 ft / 46 m 4,706 ft / 1,434 m 53.80° 50.08° Unknown 0 ft / 0 m 0 ft / 0 m
17 98 ft / 30 m 5,914 ft / 1,803 m 174.60° 170.88° Concrete 0 ft / 0 m 0 ft / 0 m
23 151 ft / 46 m 4,706 ft / 1,434 m 233.80° 230.08° Unknown 0 ft / 0 m 0 ft / 0 m
35 98 ft / 30 m 5,914 ft / 1,803 m 354.60° 350.88° Concrete 400 ft / 122 m 0 ft / 0 m

Map

Weather


0- 5 10 15 20 25 30 35+ Temperature / ° C

Clouds and Precipitation
Forecast for 2018-05-21 06:00 UTC. Updated 32 minutes ago

Ground ~20,000 ft ~40,000 ft Winds

METAR

KJYR 210535Z AUTO 34003KT 10SM BKN005 OVC011 11/11 A3011 RMK AO2

TAF

Not found

Frequencies

Recorded 124.17 MHz AWOS 3
Unicom 122.80 MHz CTAF/UNICOM
Warning: Do not use this data for real-world aviation or navigation. No guarantee of current accuracy is given.